createdAt,value
2023-01-19T00:01:00.147Z,95705.00
2023-01-19T00:03:26.906Z,95716.00
2023-01-19T00:05:54.332Z,95716.00
2023-01-19T00:08:21.214Z,95710.00
2023-01-19T00:10:53.278Z,95711.00
2023-01-19T00:13:20.037Z,95710.00
2023-01-19T00:15:47.266Z,95724.00
2023-01-19T00:18:14.111Z,95727.00
2023-01-19T00:20:40.971Z,95714.00
2023-01-19T00:23:08.772Z,95716.00
2023-01-19T00:25:42.214Z,95716.00
2023-01-19T00:28:14.537Z,95719.00
2023-01-19T00:30:42.531Z,95704.00
2023-01-19T00:33:11.135Z,95718.00
2023-01-19T00:35:37.899Z,95722.00
2023-01-19T00:38:04.929Z,95724.00
2023-01-19T00:40:31.861Z,95736.00
2023-01-19T00:43:00.123Z,95721.00
2023-01-19T00:45:27.165Z,95739.00
2023-01-19T00:47:56.981Z,95735.00
2023-01-19T00:50:26.485Z,95745.00
2023-01-19T00:52:55.543Z,95736.00
2023-01-19T00:55:23.898Z,95731.00
2023-01-19T00:57:50.750Z,95735.00
2023-01-19T01:00:22.155Z,95742.00
2023-01-19T01:02:52.294Z,95740.00
2023-01-19T01:05:19.835Z,95744.00
2023-01-19T01:07:49.459Z,95750.00
2023-01-19T01:10:19.013Z,95743.00
2023-01-19T01:12:55.989Z,95746.00
2023-01-19T01:15:27.584Z,95748.00
2023-01-19T01:17:55.137Z,95751.00
2023-01-19T01:20:28.638Z,95760.00
2023-01-19T01:22:56.372Z,95762.00
2023-01-19T01:25:25.867Z,95764.00
2023-01-19T01:27:53.735Z,95776.00
2023-01-19T01:30:21.460Z,95782.00
2023-01-19T01:32:48.921Z,95791.00
2023-01-19T01:35:16.405Z,95794.00
2023-01-19T01:37:43.315Z,95787.00
2023-01-19T01:40:14.473Z,95799.00
2023-01-19T01:42:42.518Z,95797.00
2023-01-19T01:45:45.556Z,95817.00
2023-01-19T01:48:26.948Z,95816.00
2023-01-19T01:51:19.294Z,95816.00
2023-01-19T01:53:51.704Z,95826.00
2023-01-19T01:56:26.404Z,95825.00
2023-01-19T01:58:53.694Z,95817.00
2023-01-19T02:01:38.991Z,95841.00
2023-01-19T02:04:05.873Z,95833.00
2023-01-19T02:06:32.679Z,95842.00
2023-01-19T02:09:26.245Z,95839.00
2023-01-19T02:12:13.695Z,95848.00
2023-01-19T02:14:40.448Z,95850.00
2023-01-19T02:17:07.749Z,95840.00
2023-01-19T02:19:42.136Z,95857.00
2023-01-19T02:22:28.402Z,95861.00
2023-01-19T02:24:55.210Z,95852.00
2023-01-19T02:27:22.046Z,95847.00
2023-01-19T02:29:48.868Z,95860.00
2023-01-19T02:32:15.738Z,95855.00
2023-01-19T02:34:42.612Z,95855.00
2023-01-19T02:37:13.565Z,95856.00
2023-01-19T02:39:51.724Z,95853.00
2023-01-19T02:42:25.910Z,95851.00
2023-01-19T02:44:55.266Z,95851.00
2023-01-19T02:47:22.911Z,95852.00
2023-01-19T02:49:58.070Z,95850.00
2023-01-19T02:52:26.817Z,95853.00
2023-01-19T02:55:18.237Z,95853.00
2023-01-19T02:58:11.177Z,95848.00
2023-01-19T03:01:16.103Z,95851.00
2023-01-19T03:04:15.236Z,95854.00
2023-01-19T03:06:49.959Z,95862.00
2023-01-19T03:09:48.762Z,95861.00
2023-01-19T03:12:50.129Z,95863.00
2023-01-19T03:15:27.502Z,95858.00
2023-01-19T03:17:56.130Z,95856.00
2023-01-19T03:20:25.489Z,95850.00
2023-01-19T03:22:59.211Z,95852.00
2023-01-19T03:25:27.273Z,95851.00
2023-01-19T03:27:57.212Z,95848.00
2023-01-19T03:30:45.900Z,95847.00
2023-01-19T03:33:27.420Z,95848.00
2023-01-19T03:36:12.096Z,95852.00
2023-01-19T03:38:41.773Z,95857.00
2023-01-19T03:41:16.732Z,95854.00
2023-01-19T03:43:44.643Z,95857.00
2023-01-19T03:46:12.499Z,95858.00
2023-01-19T03:48:39.476Z,95857.00
2023-01-19T03:51:09.173Z,95867.00
2023-01-19T03:53:36.224Z,95849.00
2023-01-19T03:56:03.562Z,95864.00
2023-01-19T03:58:30.339Z,95849.00
2023-01-19T04:00:57.138Z,95849.00
2023-01-19T04:03:23.966Z,95853.00
2023-01-19T04:05:50.745Z,95845.00
2023-01-19T04:08:17.524Z,95849.00
2023-01-19T04:10:44.257Z,95847.00
2023-01-19T04:13:11.039Z,95849.00
2023-01-19T04:15:37.951Z,95846.00
2023-01-19T04:18:05.326Z,95846.00
2023-01-19T04:20:32.116Z,95852.00
2023-01-19T04:23:00.833Z,95860.00
2023-01-19T04:25:28.672Z,95848.00
2023-01-19T04:27:57.918Z,95857.00
2023-01-19T04:30:26.248Z,95852.00
2023-01-19T04:32:53.717Z,95859.00
2023-01-19T04:35:21.316Z,95854.00
2023-01-19T04:37:48.525Z,95853.00
2023-01-19T04:40:16.063Z,95857.00
2023-01-19T04:42:46.626Z,95857.00
2023-01-19T04:45:14.182Z,95852.00
2023-01-19T04:47:42.801Z,95858.00
2023-01-19T04:50:11.375Z,95859.00
2023-01-19T04:52:38.253Z,95853.00
2023-01-19T04:55:07.397Z,95853.00
2023-01-19T04:57:41.367Z,95853.00
2023-01-19T05:00:09.655Z,95866.00
2023-01-19T05:02:36.869Z,95863.00
2023-01-19T05:05:04.502Z,95869.00
2023-01-19T05:07:38.264Z,95865.00
2023-01-19T05:10:06.747Z,95872.00
2023-01-19T05:12:33.880Z,95863.00
2023-01-19T05:15:01.805Z,95873.00
2023-01-19T05:17:29.105Z,95865.00
2023-01-19T05:19:55.889Z,95871.00
2023-01-19T05:22:28.820Z,95888.00
2023-01-19T05:24:55.472Z,95884.00
2023-01-19T05:27:22.267Z,95886.00
2023-01-19T05:29:49.071Z,95880.00
2023-01-19T05:32:15.862Z,95879.00
2023-01-19T05:34:42.634Z,95878.00
2023-01-19T05:37:09.454Z,95890.00
2023-01-19T05:39:36.191Z,95882.00
2023-01-19T05:42:02.991Z,95884.00
2023-01-19T05:44:29.769Z,95891.00
2023-01-19T05:46:56.602Z,95893.00
2023-01-19T05:49:23.411Z,95893.00
2023-01-19T05:51:50.206Z,95896.00
2023-01-19T05:54:18.152Z,95890.00
2023-01-19T05:56:46.113Z,95894.00
2023-01-19T05:59:12.911Z,95898.00
2023-01-19T06:01:41.973Z,95904.00
2023-01-19T06:04:10.096Z,95881.00
2023-01-19T06:06:36.953Z,95897.00
2023-01-19T06:09:05.634Z,95891.00
2023-01-19T06:11:32.414Z,95896.00
2023-01-19T06:13:59.555Z,95916.00
2023-01-19T06:16:28.440Z,95908.00
2023-01-19T06:18:55.998Z,95904.00
2023-01-19T06:21:24.322Z,95916.00
2023-01-19T06:23:51.964Z,95920.00
2023-01-19T06:26:19.108Z,95923.00
2023-01-19T06:28:47.981Z,95913.00
2023-01-19T06:31:16.025Z,95930.00
2023-01-19T06:33:43.659Z,95928.00
2023-01-19T06:36:10.793Z,95932.00
2023-01-19T06:38:39.757Z,95945.00
2023-01-19T06:41:07.684Z,95938.00
2023-01-19T06:43:35.612Z,95944.00
2023-01-19T06:46:03.515Z,95939.00
2023-01-19T06:48:30.788Z,95956.00
2023-01-19T06:50:59.699Z,95957.00
2023-01-19T06:53:30.286Z,95974.00
2023-01-19T06:56:04.550Z,95963.00
2023-01-19T06:58:32.109Z,95972.00
2023-01-19T07:01:04.480Z,95978.00
2023-01-19T07:03:32.564Z,95985.00
2023-01-19T07:06:02.858Z,95993.00
2023-01-19T07:08:30.744Z,95987.00
2023-01-19T07:11:25.535Z,95996.00
2023-01-19T07:13:55.410Z,96004.00
2023-01-19T07:16:22.335Z,96004.00
2023-01-19T07:18:50.404Z,96003.00
2023-01-19T07:21:18.144Z,96012.00
2023-01-19T07:23:49.311Z,96019.00
2023-01-19T07:26:18.722Z,96016.00
2023-01-19T07:28:47.416Z,96019.00
2023-01-19T07:31:15.930Z,96024.00
2023-01-19T07:33:44.434Z,96018.00
2023-01-19T07:36:12.439Z,96024.00
2023-01-19T07:38:40.860Z,96025.00
2023-01-19T07:41:10.724Z,96027.00
2023-01-19T07:43:38.423Z,96036.00
2023-01-19T07:46:08.638Z,96043.00
2023-01-19T07:48:36.102Z,96044.00
2023-01-19T07:51:12.498Z,96045.00
2023-01-19T07:53:40.342Z,96037.00
2023-01-19T07:56:09.142Z,96049.00
2023-01-19T07:58:36.591Z,96050.00
2023-01-19T08:01:14.385Z,96051.00
2023-01-19T08:03:42.787Z,96049.00
2023-01-19T08:06:26.214Z,96061.00
2023-01-19T08:08:54.853Z,96052.00
2023-01-19T08:11:21.651Z,96054.00
2023-01-19T08:13:49.229Z,96053.00
2023-01-19T08:16:17.505Z,96049.00
2023-01-19T08:18:44.532Z,96049.00
2023-01-19T08:21:11.282Z,96053.00
2023-01-19T08:23:38.161Z,96061.00
2023-01-19T08:26:30.290Z,96060.00
2023-01-19T08:28:59.642Z,96071.00
2023-01-19T08:31:29.173Z,96068.00
2023-01-19T08:33:56.964Z,96080.00
2023-01-19T08:36:25.911Z,96070.00
2023-01-19T08:38:53.200Z,96072.00
2023-01-19T08:41:20.688Z,96076.00
2023-01-19T08:43:50.744Z,96081.00
2023-01-19T08:46:20.747Z,96078.00
2023-01-19T08:48:49.336Z,96074.00
2023-01-19T08:51:16.979Z,96084.00
2023-01-19T08:53:45.444Z,96077.00
2023-01-19T08:56:15.240Z,96078.00
2023-01-19T08:58:44.702Z,96084.00
2023-01-19T09:01:14.810Z,96082.00
2023-01-19T09:03:43.987Z,96091.00
2023-01-19T09:06:14.829Z,96085.00
2023-01-19T09:08:41.639Z,96099.00
2023-01-19T09:11:14.742Z,96088.00
2023-01-19T09:13:42.035Z,96099.00
2023-01-19T09:16:11.368Z,96086.00
2023-01-19T09:18:38.830Z,96088.00
2023-01-19T09:21:05.903Z,96090.00
2023-01-19T09:23:32.970Z,96087.00
2023-01-19T09:26:03.071Z,96091.00
2023-01-19T09:28:30.172Z,96100.00
2023-01-19T09:30:57.307Z,96094.00
2023-01-19T09:33:24.734Z,96101.00
2023-01-19T09:35:53.945Z,96100.00
2023-01-19T09:38:22.881Z,96110.00
2023-01-19T09:40:54.905Z,96119.00
2023-01-19T09:43:41.572Z,96115.00
2023-01-19T09:46:22.377Z,96106.00
2023-01-19T09:48:57.638Z,96115.00
2023-01-19T09:51:29.857Z,96115.00
2023-01-19T09:54:19.552Z,96123.00
2023-01-19T09:56:52.398Z,96117.00
2023-01-19T09:59:34.534Z,96125.00
2023-01-19T10:02:22.254Z,96124.00
2023-01-19T10:05:33.098Z,96122.00
2023-01-19T10:08:08.670Z,96124.00
2023-01-19T10:10:37.626Z,96130.00
2023-01-19T10:13:25.585Z,96135.00
2023-01-19T10:16:31.776Z,96134.00
2023-01-19T10:19:29.654Z,96124.00
2023-01-19T10:22:00.895Z,96124.00
2023-01-19T10:24:38.917Z,96125.00
2023-01-19T10:27:18.437Z,96130.00
2023-01-19T10:29:47.312Z,96131.00
2023-01-19T10:32:27.167Z,96137.00
2023-01-19T10:34:55.796Z,96135.00
2023-01-19T10:37:39.935Z,96138.00
2023-01-19T10:40:09.851Z,96126.00
2023-01-19T10:42:40.441Z,96126.00
2023-01-19T10:45:24.184Z,96127.00
2023-01-19T10:47:52.789Z,96120.00
2023-01-19T10:50:37.622Z,96125.00
2023-01-19T10:53:06.792Z,96118.00
2023-01-19T10:55:40.111Z,96125.00
2023-01-19T10:58:28.434Z,96113.00
2023-01-19T11:00:55.653Z,96103.00
2023-01-19T11:03:32.268Z,96097.00
2023-01-19T11:06:23.102Z,96110.00
2023-01-19T11:08:51.890Z,96109.00
2023-01-19T11:11:25.974Z,96104.00
2023-01-19T11:14:14.383Z,96105.00
2023-01-19T11:16:48.550Z,96110.00
2023-01-19T11:19:28.716Z,96093.00
2023-01-19T11:22:22.759Z,96097.00
2023-01-19T11:24:50.078Z,96097.00
2023-01-19T11:27:22.597Z,96099.00
2023-01-19T11:30:18.365Z,96099.00
2023-01-19T11:32:46.349Z,96102.00
2023-01-19T11:35:42.118Z,96101.00
2023-01-19T11:38:12.080Z,96106.00
2023-01-19T11:40:40.608Z,96109.00
2023-01-19T11:43:12.918Z,96101.00
2023-01-19T11:45:42.921Z,96101.00
2023-01-19T11:48:21.288Z,96090.00
2023-01-19T11:50:50.717Z,96091.00
2023-01-19T11:53:30.123Z,96087.00
2023-01-19T11:56:12.519Z,96082.00
2023-01-19T11:58:43.306Z,96078.00
2023-01-19T12:01:36.356Z,96078.00
2023-01-19T12:04:26.083Z,96076.00
2023-01-19T12:06:59.563Z,96074.00
2023-01-19T12:09:51.127Z,96063.00
2023-01-19T12:12:28.233Z,96066.00
2023-01-19T12:15:08.899Z,96067.00
2023-01-19T12:17:45.622Z,96054.00
2023-01-19T12:20:23.745Z,96068.00
2023-01-19T12:23:28.702Z,96061.00
2023-01-19T12:26:55.872Z,96059.00
2023-01-19T12:29:28.719Z,96059.00
2023-01-19T12:32:16.003Z,96058.00
2023-01-19T12:34:51.983Z,96059.00
2023-01-19T12:37:31.199Z,96054.00
2023-01-19T12:40:30.464Z,96040.00
2023-01-19T12:43:06.044Z,96054.00
2023-01-19T12:45:35.384Z,96055.00
2023-01-19T12:48:04.114Z,96046.00
2023-01-19T12:50:37.897Z,96048.00
2023-01-19T12:53:17.433Z,96050.00
2023-01-19T12:55:46.891Z,96048.00
2023-01-19T12:58:23.531Z,96052.00
2023-01-19T13:01:14.549Z,96053.00
2023-01-19T13:04:06.813Z,96054.00
2023-01-19T13:06:49.272Z,96066.00
2023-01-19T13:09:38.745Z,96056.00
2023-01-19T13:12:14.712Z,96056.00
2023-01-19T13:14:43.559Z,96050.00
2023-01-19T13:17:35.663Z,96042.00
2023-01-19T13:20:24.811Z,96057.00
2023-01-19T13:22:55.841Z,96054.00
2023-01-19T13:25:35.110Z,96054.00
2023-01-19T13:28:09.111Z,96052.00
2023-01-19T13:30:38.358Z,96049.00
2023-01-19T13:33:19.975Z,96047.00
2023-01-19T13:35:58.634Z,96046.00
2023-01-19T13:38:27.494Z,96056.00
2023-01-19T13:40:56.418Z,96054.00
2023-01-19T13:43:37.097Z,96044.00
2023-01-19T13:46:04.658Z,96040.00
2023-01-19T13:48:32.822Z,96057.00
2023-01-19T13:51:07.835Z,96046.00
2023-01-19T13:53:35.485Z,96060.00
2023-01-19T13:56:24.345Z,96059.00
2023-01-19T13:59:12.544Z,96048.00
2023-01-19T14:01:45.954Z,96059.00
2023-01-19T14:04:33.732Z,96050.00
2023-01-19T14:07:13.836Z,96043.00
2023-01-19T14:09:40.816Z,96053.00
2023-01-19T14:12:17.716Z,96050.00
2023-01-19T14:14:47.396Z,96050.00
2023-01-19T14:17:27.931Z,96054.00
2023-01-19T14:19:58.479Z,96038.00
2023-01-19T14:22:39.909Z,96056.00
2023-01-19T14:25:36.139Z,96049.00
2023-01-19T14:28:40.809Z,96063.00
2023-01-19T14:31:28.168Z,96062.00
2023-01-19T14:33:58.407Z,96056.00
2023-01-19T14:36:39.311Z,96064.00
2023-01-19T14:39:28.806Z,96071.00
2023-01-19T14:42:00.291Z,96059.00
2023-01-19T14:48:53.863Z,96073.00
2023-01-19T14:51:23.538Z,96058.00
2023-01-19T14:53:57.951Z,96064.00
2023-01-19T14:56:34.095Z,96067.00
2023-01-19T14:59:11.279Z,96072.00
2023-01-19T15:01:38.611Z,96076.00
2023-01-19T15:04:05.621Z,96063.00
2023-01-19T15:06:33.927Z,96079.00
2023-01-19T15:09:01.163Z,96076.00
2023-01-19T15:11:36.091Z,96071.00
2023-01-19T15:14:04.069Z,96074.00
2023-01-19T15:16:34.314Z,96067.00
2023-01-19T15:19:01.561Z,96079.00
2023-01-19T15:21:28.948Z,96082.00
2023-01-19T15:23:56.857Z,96078.00
2023-01-19T15:26:26.698Z,96078.00
2023-01-19T15:28:55.984Z,96076.00
2023-01-19T15:31:25.661Z,96082.00
2023-01-19T15:33:52.466Z,96080.00
2023-01-19T15:36:21.827Z,96087.00
2023-01-19T15:38:52.631Z,96081.00
2023-01-19T15:41:27.262Z,96093.00
2023-01-19T15:43:54.767Z,96088.00
2023-01-19T15:46:24.133Z,96084.00
2023-01-19T15:48:52.065Z,96094.00
2023-01-19T15:51:22.731Z,96093.00
2023-01-19T15:53:49.828Z,96099.00
2023-01-19T15:56:22.752Z,96083.00
2023-01-19T15:58:50.344Z,96104.00
2023-01-19T16:01:22.739Z,96098.00
2023-01-19T16:03:50.432Z,96085.00
2023-01-19T16:06:19.455Z,96097.00
2023-01-19T16:08:46.313Z,96095.00
2023-01-19T16:11:16.333Z,96095.00
2023-01-19T16:13:48.251Z,96092.00
2023-01-19T16:16:20.326Z,96101.00
2023-01-19T16:18:48.105Z,96102.00
2023-01-19T16:21:15.211Z,96115.00
2023-01-19T16:23:43.086Z,96105.00
2023-01-19T16:26:34.943Z,96103.00
2023-01-19T16:29:09.817Z,96114.00
2023-01-19T16:31:43.534Z,96106.00
2023-01-19T16:34:12.514Z,96118.00
2023-01-19T16:36:43.189Z,96124.00
2023-01-19T16:39:15.430Z,96118.00
2023-01-19T16:41:43.974Z,96127.00
2023-01-19T16:44:14.269Z,96126.00
2023-01-19T16:46:44.190Z,96127.00
2023-01-19T16:49:19.405Z,96138.00
2023-01-19T16:51:47.675Z,96130.00
2023-01-19T16:54:22.077Z,96136.00
2023-01-19T16:56:49.726Z,96134.00
2023-01-19T16:59:22.300Z,96130.00
2023-01-19T17:01:50.991Z,96134.00
2023-01-19T17:04:19.637Z,96125.00
2023-01-19T17:06:47.244Z,96134.00
2023-01-19T17:09:15.417Z,96128.00
2023-01-19T17:11:44.300Z,96126.00
2023-01-19T17:14:21.254Z,96125.00
2023-01-19T17:16:51.231Z,96135.00
2023-01-19T17:19:22.274Z,96125.00
2023-01-19T17:21:49.938Z,96120.00
2023-01-19T17:24:17.940Z,96128.00
2023-01-19T17:26:48.993Z,96132.00
2023-01-19T17:29:18.068Z,96129.00
2023-01-19T17:31:47.334Z,96125.00
2023-01-19T17:34:14.737Z,96122.00
2023-01-19T17:36:41.844Z,96131.00
2023-01-19T17:39:15.418Z,96134.00
2023-01-19T17:41:42.408Z,96130.00
2023-01-19T17:44:11.570Z,96132.00
2023-01-19T17:46:40.264Z,96135.00
2023-01-19T17:49:08.378Z,96139.00
2023-01-19T17:51:36.046Z,96144.00
2023-01-19T17:54:04.540Z,96144.00
2023-01-19T17:56:36.558Z,96144.00
2023-01-19T17:59:06.635Z,96147.00
2023-01-19T18:01:37.750Z,96144.00
2023-01-19T18:04:06.548Z,96145.00
2023-01-19T18:06:33.813Z,96148.00
2023-01-19T18:09:01.547Z,96148.00
2023-01-19T18:11:29.103Z,96150.00
2023-01-19T18:13:56.229Z,96149.00
2023-01-19T18:16:28.558Z,96149.00
2023-01-19T18:18:56.748Z,96146.00
2023-01-19T18:21:27.368Z,96149.00
2023-01-19T18:24:02.735Z,96144.00
2023-01-19T18:26:32.326Z,96148.00
2023-01-19T18:28:59.898Z,96157.00
2023-01-19T18:31:27.859Z,96164.00
2023-01-19T18:33:56.735Z,96152.00
2023-01-19T18:36:23.675Z,96148.00
2023-01-19T18:38:50.732Z,96156.00
2023-01-19T18:41:21.482Z,96153.00
2023-01-19T18:43:49.421Z,96161.00
2023-01-19T18:46:17.375Z,96163.00
2023-01-19T18:48:44.639Z,96162.00
2023-01-19T18:51:14.717Z,96157.00
2023-01-19T18:53:44.092Z,96156.00
2023-01-19T18:56:16.303Z,96164.00
2023-01-19T18:58:45.965Z,96155.00
2023-01-19T19:01:28.841Z,96160.00
2023-01-19T19:03:57.767Z,96172.00
2023-01-19T19:06:27.711Z,96173.00
2023-01-19T19:08:59.611Z,96170.00
2023-01-19T19:11:27.629Z,96159.00
2023-01-19T19:13:59.456Z,96168.00
2023-01-19T19:16:29.359Z,96173.00
2023-01-19T19:18:58.206Z,96162.00
2023-01-19T19:21:26.214Z,96177.00
2023-01-19T19:23:59.128Z,96173.00
2023-01-19T19:26:28.066Z,96173.00
2023-01-19T19:28:55.973Z,96176.00
2023-01-19T19:31:26.709Z,96186.00
2023-01-19T19:33:55.632Z,96174.00
2023-01-19T19:36:24.736Z,96164.00
2023-01-19T19:38:52.561Z,96172.00
2023-01-19T19:41:29.053Z,96169.00
2023-01-19T19:43:56.476Z,96180.00
2023-01-19T19:46:26.198Z,96176.00
2023-01-19T19:48:56.254Z,96170.00
2023-01-19T19:51:29.299Z,96179.00
2023-01-19T19:54:00.164Z,96185.00
2023-01-19T19:56:31.079Z,96195.00
2023-01-19T19:59:00.002Z,96190.00
2023-01-19T20:01:34.032Z,96196.00
2023-01-19T20:04:08.663Z,96196.00
2023-01-19T20:06:39.743Z,96195.00
2023-01-19T20:09:10.704Z,96197.00
2023-01-19T20:11:39.760Z,96202.00
2023-01-19T20:14:10.524Z,96201.00
2023-01-19T20:16:39.423Z,96211.00
2023-01-19T20:19:06.850Z,96205.00
2023-01-19T20:21:38.283Z,96200.00
2023-01-19T20:24:11.109Z,96205.00
2023-01-19T20:26:42.282Z,96215.00
2023-01-19T20:29:11.027Z,96214.00
2023-01-19T20:31:46.973Z,96209.00
2023-01-19T20:34:17.644Z,96215.00
2023-01-19T20:36:49.350Z,96218.00
2023-01-19T20:39:20.715Z,96214.00
2023-01-19T20:41:51.331Z,96213.00
2023-01-19T20:44:24.517Z,96213.00
2023-01-19T20:46:52.507Z,96215.00
2023-01-19T20:49:19.594Z,96208.00
2023-01-19T20:51:46.963Z,96214.00
2023-01-19T20:54:16.968Z,96213.00
2023-01-19T20:56:44.274Z,96210.00
2023-01-19T20:59:12.246Z,96222.00
2023-01-19T21:01:41.128Z,96222.00
2023-01-19T21:04:08.907Z,96221.00
2023-01-19T21:06:36.062Z,96218.00
2023-01-19T21:09:03.934Z,96221.00
2023-01-19T21:11:31.379Z,96215.00
2023-01-19T21:13:58.236Z,96219.00
2023-01-19T21:16:32.564Z,96228.00
2023-01-19T21:18:59.880Z,96237.00
2023-01-19T21:21:31.670Z,96240.00
2023-01-19T21:24:01.490Z,96238.00
2023-01-19T21:26:33.271Z,96232.00
2023-01-19T21:29:01.741Z,96235.00
2023-01-19T21:31:29.397Z,96219.00
2023-01-19T21:33:59.622Z,96219.00
2023-01-19T21:36:26.929Z,96230.00
2023-01-19T21:39:00.049Z,96235.00
2023-01-19T21:41:28.413Z,96239.00
2023-01-19T21:43:55.620Z,96218.00
2023-01-19T21:46:29.269Z,96221.00
2023-01-19T21:48:58.210Z,96217.00
2023-01-19T21:51:25.409Z,96208.00
2023-01-19T21:53:54.947Z,96203.00
2023-01-19T21:56:22.865Z,96198.00
2023-01-19T21:58:50.127Z,96198.00
2023-01-19T22:01:17.313Z,96208.00
2023-01-19T22:03:44.295Z,96203.00
2023-01-19T22:06:14.895Z,96203.00
2023-01-19T22:08:41.882Z,96208.00
2023-01-19T22:11:11.504Z,96190.00
2023-01-19T22:13:38.970Z,96195.00
2023-01-19T22:16:16.629Z,96201.00
2023-01-19T22:18:50.501Z,96189.00
2023-01-19T22:21:26.082Z,96204.00
2023-01-19T22:23:56.678Z,96199.00
2023-01-19T22:26:23.840Z,96198.00
2023-01-19T22:28:56.194Z,96198.00
2023-01-19T22:31:25.701Z,96212.00
2023-01-19T22:33:53.631Z,96206.00
2023-01-19T22:36:31.503Z,96211.00
2023-01-19T22:39:01.928Z,96203.00
2023-01-19T22:41:38.108Z,96205.00
2023-01-19T22:44:08.839Z,96203.00
2023-01-19T22:46:37.226Z,96204.00
2023-01-19T22:49:08.678Z,96215.00
2023-01-19T22:51:36.438Z,96217.00
2023-01-19T22:54:04.692Z,96215.00
2023-01-19T22:56:35.363Z,96222.00
2023-01-19T22:59:04.205Z,96200.00
2023-01-19T23:01:38.324Z,96199.00
2023-01-19T23:04:08.823Z,96204.00
2023-01-19T23:06:36.620Z,96204.00
2023-01-19T23:09:09.831Z,96204.00
2023-01-19T23:11:41.800Z,96200.00
2023-01-19T23:14:15.698Z,96219.00
2023-01-19T23:16:42.604Z,96212.00
2023-01-19T23:19:11.710Z,96219.00
2023-01-19T23:21:39.444Z,96228.00
2023-01-19T23:24:07.059Z,96232.00
2023-01-19T23:26:38.309Z,96241.00
2023-01-19T23:29:14.031Z,96235.00
2023-01-19T23:31:47.067Z,96248.00
2023-01-19T23:34:14.822Z,96252.00
2023-01-19T23:36:44.033Z,96250.00
2023-01-19T23:39:23.901Z,96251.00
2023-01-19T23:41:52.861Z,96252.00
2023-01-19T23:44:20.189Z,96259.00
2023-01-19T23:46:48.671Z,96249.00
2023-01-19T23:49:15.584Z,96256.00
2023-01-19T23:51:43.141Z,96257.00
2023-01-19T23:54:10.092Z,96256.00
2023-01-19T23:56:38.175Z,96260.00
2023-01-19T23:59:08.193Z,96263.00
